| Date | Time | Temp. (oF) | Dew Point (oF) | Rel. Hum. (%) | Press. (in.) | Wind Dir. | Wind Speed (mph) | Hourly Rainfall (in.) |
|
|---|---|---|---|---|---|---|---|---|---|
| 1 | 04/25 | 00:00 | 38 | 32 | 82 | 29.51 | SW | 3 | 0.00 |
| 2 | 04/24 | 23:00 | 40 | 33 | 77 | 29.50 | SSW | 5 | 0.00 |
| 3 | 04/24 | 22:00 | 42 | 32 | 70 | 29.50 | WSW | 8 | 0.00 |
| 4 | 04/24 | 21:00 | 43 | 33 | 68 | 29.48 | SW | 3 | 0.00 |
| 5 | 04/24 | 20:00 | 42 | 37 | 84 | 29.46 | S | 4 | 0.00 |
| 6 | 04/24 | 19:00 | 42 | 35 | 79 | 29.45 | S | 4 | 0.00 |
| 7 | 04/24 | 18:00 | 42 | 37 | 83 | 29.45 | WSW | 2 | 0.01 |
| 8 | 04/24 | 17:00 | 44 | 34 | 69 | 29.44 | SW | 7 | 0.00 |
| 9 | 04/24 | 16:00 | 45 | 35 | 69 | 29.43 | S | 8 | 0.00 |
| 10 | 04/24 | 15:00 | 44 | 34 | 68 | 29.44 | WNW | 7 | 0.00 |
| 11 | 04/24 | 14:00 | 46 | 32 | 60 | 29.43 | S | 7 | 0.00 |
| 12 | 04/24 | 13:00 | 44 | 33 | 66 | 29.44 | SSW | 8 | 0.00 |
| 13 | 04/24 | 12:00 | 44 | 31 | 62 | 29.43 | WSW | 6 | 0.00 |
| 14 | 04/24 | 11:00 | 44 | 31 | 61 | 29.42 | SSW | 14 | 0.00 |
| 15 | 04/24 | 10:00 | 43 | 32 | 67 | 29.40 | SSW | 9 | 0.00 |
| 16 | 04/24 | 09:00 | 41 | 33 | 74 | 29.39 | SW | 8 | 0.00 |
| 17 | 04/24 | 08:00 | 40 | 34 | 82 | 29.39 | WNW | 4 | 0.00 |
| 18 | 04/24 | 07:00 | 39 | 34 | 84 | 29.38 | SW | 4 | 0.00 |
| 19 | 04/24 | 06:00 | 40 | 35 | 85 | 29.36 | NW | 3 | 0.00 |
| 20 | 04/24 | 05:00 | 40 | 36 | 88 | 29.35 | W | 5 | 0.01 |
| 21 | 04/24 | 04:00 | 42 | 37 | 84 | 29.35 | SSW | 7 | 0.00 |
| 22 | 04/24 | 03:00 | 44 | 40 | 87 | 29.33 | SW | 6 | 0.00 |
| 23 | 04/24 | 02:00 | 45 | 42 | 92 | 29.35 | SW | 8 | 0.00 |
| 24 | 04/24 | 01:00 | 46 | 45 | 100 | 29.35 | SW | 4 | 0.00 |